Time;durP1;ratioP1;P1;durP2;ratioP2;P2;SDS_P1;SDS_P2;PMS_P1;PMS_P2;Temp;Humidity;BMP_temperature;BMP_pressure;BME280_temperature;BME280_humidity;BME280_pressure;Samples;Min_cycle;Max_cycle;Signal;HPM_P1;HPM_P2
2021/04/01 00:01:21;;;;;;;73.38;31.38;;;20.70;37.00;;;;;;5095621;28;20031;-67
2021/04/01 00:03:48;;;;;;;65.60;28.33;;;20.70;37.20;;;;;;5095654;28;20047;-68
2021/04/01 00:06:15;;;;;;;65.55;29.13;;;20.70;37.30;;;;;;5095422;28;20040;-68
2021/04/01 00:08:42;;;;;;;72.72;30.00;;;20.60;37.40;;;;;;5095315;28;20035;-69
2021/04/01 00:11:10;;;;;;;72.32;28.88;;;20.60;37.50;;;;;;5095003;28;20036;-67
2021/04/01 00:13:37;;;;;;;68.63;29.90;;;20.50;37.10;;;;;;5094888;28;20048;-67
2021/04/01 00:16:05;;;;;;;77.25;31.63;;;20.40;36.70;;;;;;5094738;28;20048;-68
2021/04/01 00:18:35;;;;;;;78.38;31.02;;;20.50;37.40;;;;;;5095037;28;20036;-67
2021/04/01 00:21:03;;;;;;;65.05;29.20;;;20.40;37.30;;;;;;5095463;28;20055;-68
2021/04/01 00:23:30;;;;;;;71.65;30.75;;;20.50;37.60;;;;;;5093518;28;20050;-69
2021/04/01 00:25:57;;;;;;;68.18;30.63;;;20.40;37.60;;;;;;5094661;28;20101;-70
2021/04/01 00:28:24;;;;;;;76.05;30.52;;;20.50;37.80;;;;;;5080656;28;20503;-67
2021/04/01 00:30:51;;;;;;;66.78;30.52;;;;;;;;;;5095135;28;20040;-68
2021/04/01 00:33:18;;;;;;;70.35;31.20;;;20.40;37.40;;;;;;5094687;28;20048;-68
2021/04/01 00:35:44;;;;;;;66.45;31.10;;;20.40;38.40;;;;;;5094929;28;20056;-69
2021/04/01 00:38:11;;;;;;;71.95;30.75;;;20.30;37.80;;;;;;5092946;28;20430;-67
2021/04/01 00:40:38;;;;;;;76.13;30.08;;;20.30;38.30;;;;;;5094575;28;20483;-67
2021/04/01 00:43:05;;;;;;;74.40;30.55;;;20.30;38.00;;;;;;5094281;28;20040;-66
2021/04/01 00:45:32;;;;;;;67.00;29.85;;;20.30;38.50;;;;;;5094694;28;20085;-68
2021/04/01 00:47:58;;;;;;;68.90;30.55;;;20.20;38.50;;;;;;5094263;28;20047;-66
2021/04/01 00:50:31;;;;;;;79.88;30.83;;;20.10;38.90;;;;;;5093633;28;20097;-67
2021/04/01 00:52:59;;;;;;;66.32;29.13;;;20.10;38.50;;;;;;5075754;28;20089;-68
2021/04/01 00:55:26;;;;;;;70.43;29.20;;;20.10;39.00;;;;;;5094343;28;20421;-68
2021/04/01 00:57:56;;;;;;;67.95;30.38;;;20.20;39.10;;;;;;5094444;28;20036;-68
2021/04/01 01:00:25;;;;;;;67.90;30.10;;;20.10;38.80;;;;;;5094185;28;20043;-68
2021/04/01 01:02:53;;;;;;;69.68;30.40;;;20.10;38.90;;;;;;5093782;28;20043;-70
2021/04/01 01:05:21;;;;;;;66.85;28.92;;;20.10;38.70;;;;;;5094351;28;20058;-66
2021/04/01 01:07:48;;;;;;;65.45;29.85;;;20.00;38.70;;;;;;5075916;28;20047;-68
2021/04/01 01:10:18;;;;;;;65.38;29.77;;;20.10;39.40;;;;;;5094265;28;20048;-69
2021/04/01 01:12:45;;;;;;;69.30;30.63;;;20.10;39.30;;;;;;5075838;28;20048;-68
2021/04/01 01:15:13;;;;;;;;;;;20.00;39.40;;;;;;5094528;28;20043;-66
2021/04/01 01:17:40;;;;;;;65.93;29.75;;;20.10;39.10;;;;;;5094497;28;19923;-69
2021/04/01 01:20:09;;;;;;;80.63;31.95;;;20.00;37.90;;;;;;5094507;28;20040;-68
2021/04/01 01:22:38;;;;;;;81.13;33.30;;;20.00;36.90;;;;;;5078908;28;20052;-68
2021/04/01 01:25:08;;;;;;;76.05;32.72;;;20.10;36.80;;;;;;5093853;28;20433;-67
2021/04/01 01:27:35;;;;;;;79.13;33.25;;;20.10;36.70;;;;;;5094091;28;20090;-67
2021/04/01 01:30:14;;;;;;;82.70;34.22;;;20.00;37.30;;;;;;5093395;28;20090;-68
2021/04/01 01:32:43;;;;;;;80.60;32.30;;;20.20;36.50;;;;;;5093717;28;20043;-67
2021/04/01 01:35:37;;;;;;;86.07;35.58;;;20.30;36.40;;;;;;5093890;28;20036;-70
2021/04/01 01:38:07;;;;;;;81.28;34.70;;;20.20;36.10;;;;;;5010874;28;20049;-67
2021/04/01 01:40:35;;;;;;;76.95;34.42;;;20.30;36.10;;;;;;4994977;28;20053;-70
2021/04/01 01:43:04;;;;;;;80.40;35.10;;;20.20;36.10;;;;;;5011107;28;20050;-69
2021/04/01 01:45:32;;;;;;;82.10;34.25;;;20.30;36.30;;;;;;5011147;28;20101;-67
2021/04/01 01:47:59;;;;;;;81.05;33.83;;;;;;;;;;5011166;28;20050;-68
2021/04/01 01:50:33;;;;;;;79.43;34.47;;;20.40;36.20;;;;;;5010993;28;20096;-66
2021/04/01 01:53:01;;;;;;;79.15;34.08;;;20.30;35.90;;;;;;5011023;28;20038;-67
2021/04/01 01:55:28;;;;;;;80.28;35.40;;;20.30;35.90;;;;;;5011154;28;20111;-66
2021/04/01 01:57:55;;;;;;;85.57;34.85;;;20.30;36.40;;;;;;5011386;28;20500;-70
2021/04/01 02:00:35;;;;;;;78.78;34.28;;;20.30;36.30;;;;;;5011128;28;20050;-69
2021/04/01 02:03:04;;;;;;;82.28;35.08;;;20.30;36.10;;;;;;4990051;28;20137;-67
2021/04/01 02:05:33;;;;;;;81.68;35.25;;;20.30;35.70;;;;;;4989719;28;20077;-68
2021/04/01 02:08:00;;;;;;;81.05;35.92;;;20.30;36.20;;;;;;4991600;28;20062;-69
2021/04/01 02:10:33;;;;;;;84.15;36.22;;;20.30;35.80;;;;;;4991726;28;20050;-68
2021/04/01 02:13:00;;;;;;;85.90;34.67;;;20.30;36.20;;;;;;4991032;28;20446;-68
2021/04/01 02:15:29;;;;;;;82.38;34.90;;;20.20;36.50;;;;;;5035431;28;20507;-68
2021/04/01 02:18:16;;;;;;;84.32;34.88;;;20.20;36.20;;;;;;5034731;28;20045;-67
2021/04/01 02:20:46;;;;;;;89.15;33.78;;;20.30;35.80;;;;;;5052128;28;20056;-68
2021/04/01 02:23:17;;;;;;;79.57;34.33;;;20.30;36.40;;;;;;5052746;28;20090;-66
2021/04/01 02:25:46;;;;;;;94.32;36.17;;;20.20;36.30;;;;;;5052393;28;20049;-66
2021/04/01 02:28:14;;;;;;;80.22;34.25;;;20.20;36.80;;;;;;5052432;28;20065;-68
2021/04/01 02:30:43;;;;;;;86.03;35.15;;;20.30;36.00;;;;;;5052020;28;20048;-66
2021/04/01 02:33:11;;;;;;;86.07;35.75;;;20.40;36.30;;;;;;5052028;28;20095;-68
2021/04/01 02:35:37;;;;;;;79.38;34.30;;;20.30;36.20;;;;;;5050964;28;20065;-69
2021/04/01 02:38:05;;;;;;;81.82;34.72;;;20.40;36.50;;;;;;5039540;28;20044;-68
2021/04/01 02:40:34;;;;;;;85.85;35.55;;;20.40;36.60;;;;;;5052094;28;20045;-68
2021/04/01 02:43:01;;;;;;;79.50;35.92;;;20.30;36.30;;;;;;5051705;28;20041;-66
2021/04/01 02:45:28;;;;;;;84.00;35.78;;;20.30;36.80;;;;;;5052175;28;20076;-68
2021/04/01 02:47:55;;;;;;;;;;;20.30;37.00;;;;;;5052099;28;20045;-69
2021/04/01 02:50:22;;;;;;;83.38;34.63;;;20.20;36.50;;;;;;5051863;28;19932;-67
2021/04/01 02:52:49;;;;;;;82.43;36.75;;;20.20;36.80;;;;;;5051987;28;20056;-67
2021/04/01 02:55:15;;;;;;;;;;;20.10;36.70;;;;;;5051344;28;20080;-67
2021/04/01 02:57:42;;;;;;;;;;;20.10;36.40;;;;;;5052504;28;20431;-69
2021/04/01 03:00:17;;;;;;;78.65;34.30;;;20.10;36.70;;;;;;5051860;28;19925;-67
2021/04/01 03:02:47;;;;;;;84.40;35.40;;;20.10;37.40;;;;;;5051909;28;20036;-66
2021/04/01 03:05:14;;;;;;;82.93;34.90;;;20.00;37.10;;;;;;5051532;28;20033;-66
2021/04/01 03:07:40;;;;;;;83.07;35.05;;;19.90;37.00;;;;;;5051677;28;20040;-65
2021/04/01 03:10:12;;;;;;;88.45;35.95;;;19.80;37.00;;;;;;5050480;28;20044;-66
2021/04/01 03:12:40;;;;;;;86.75;36.65;;;19.80;37.10;;;;;;5051523;28;20048;-66
2021/04/01 03:15:11;;;;;;;85.20;35.65;;;19.70;36.70;;;;;;5050685;28;20102;-68
2021/04/01 03:17:40;;;;;;;81.68;36.10;;;19.60;36.40;;;;;;5070150;28;20494;-68
2021/04/01 03:20:08;;;;;;;98.75;39.15;;;19.70;37.10;;;;;;5071353;28;20414;-67
2021/04/01 03:22:37;;;;;;;95.63;39.17;;;19.50;37.80;;;;;;5053900;28;20044;-68
2021/04/01 03:25:05;;;;;;;91.05;38.33;;;19.50;38.50;;;;;;5071137;28;20402;-68
2021/04/01 03:27:32;;;;;;;83.90;36.53;;;19.30;38.70;;;;;;5071425;28;20106;-70
2021/04/01 03:30:08;;;;;;;;;;;19.30;39.20;;;;;;5071722;28;20044;-67
2021/04/01 03:32:44;;;;;;;85.85;35.45;;;19.10;39.00;;;;;;5057410;28;19926;-68
2021/04/01 03:35:13;;;;;;;86.82;36.47;;;19.10;39.60;;;;;;5071538;28;20051;-69
2021/04/01 03:37:41;;;;;;;84.03;35.63;;;18.90;39.60;;;;;;5057744;28;20056;-69
2021/04/01 03:40:09;;;;;;;79.93;35.03;;;18.80;39.90;;;;;;5071141;28;20052;-67
2021/04/01 03:42:38;;;;;;;87.88;36.42;;;18.60;40.20;;;;;;5071519;28;20052;-68
2021/04/01 03:45:08;;;;;;;90.30;34.63;;;18.50;40.70;;;;;;5071141;28;20453;-68
2021/04/01 03:47:35;;;;;;;81.55;33.92;;;;;;;;;;5070894;28;20029;-68
2021/04/01 03:50:04;;;;;;;81.50;33.38;;;18.10;41.00;;;;;;5071207;28;20040;-67
2021/04/01 03:52:32;;;;;;;81.72;32.50;;;;;;;;;;5071002;28;20098;-68
2021/04/01 03:57:51;;;;;;;82.20;31.35;;;17.90;41.10;;;;;;5009005;28;20101;-68
2021/04/01 04:00:25;;;;;;;85.55;32.13;;;18.00;41.30;;;;;;5009569;28;20061;-68
2021/04/01 04:03:11;;;;;;;92.43;34.75;;;18.00;41.10;;;;;;5008544;28;20058;-68
2021/04/01 04:05:53;;;;;;;73.35;31.95;;;18.10;41.10;;;;;;5009184;28;20046;-68
2021/04/01 04:16:28;;;;;;;70.63;29.55;;;17.90;41.40;;;;;;5008358;28;20147;-66
2021/04/01 04:18:56;;;;;;;67.47;30.77;;;17.80;41.40;;;;;;4992461;28;20053;-68
2021/04/01 04:21:22;;;;;;;73.50;31.17;;;17.90;41.30;;;;;;5009185;28;20551;-67
2021/04/01 04:23:50;;;;;;;72.65;31.23;;;17.90;41.30;;;;;;5009020;28;20037;-67
2021/04/01 04:26:17;;;;;;;77.88;31.50;;;17.90;41.40;;;;;;5011081;28;20045;-69
2021/04/01 04:28:44;;;;;;;78.18;30.75;;;18.00;40.90;;;;;;5012366;28;20472;-67
2021/04/01 04:31:11;;;;;;;68.18;29.88;;;;;;;;;;5012266;28;20133;-67
2021/04/01 04:33:38;;;;;;;73.05;31.48;;;18.10;40.90;;;;;;4996794;28;20050;-68
2021/04/01 04:36:07;;;;;;;78.50;31.60;;;18.00;41.30;;;;;;5054522;28;20033;-68
2021/04/01 04:38:35;;;;;;;71.13;29.77;;;18.10;40.70;;;;;;5054462;28;20045;-68
2021/04/01 04:41:03;;;;;;;76.53;30.00;;;18.00;40.70;;;;;;5054457;28;20045;-66
2021/04/01 04:43:32;;;;;;;72.80;30.60;;;18.00;40.70;;;;;;5054042;28;20045;-67
2021/04/01 04:45:59;;;;;;;79.38;30.95;;;18.10;41.00;;;;;;5053251;28;20102;-67
2021/04/01 04:48:26;;;;;;;74.25;30.40;;;18.00;40.20;;;;;;5054498;28;20051;-68
2021/04/01 04:50:54;;;;;;;78.18;30.67;;;18.20;40.30;;;;;;5054431;28;20041;-66
2021/04/01 04:53:24;;;;;;;67.55;30.83;;;18.20;39.80;;;;;;5036463;28;20040;-69
2021/04/01 04:56:02;;;;;;;81.00;30.55;;;18.20;39.90;;;;;;5054094;28;20037;-68
2021/04/01 04:58:55;;;;;;;73.32;31.50;;;18.20;40.10;;;;;;5053878;28;20050;-67
2021/04/01 05:09:03;;;;;;;75.03;31.83;;;18.20;40.30;;;;;;5053548;28;20053;-68
2021/04/01 05:11:33;;;;;;;68.97;30.15;;;18.30;40.40;;;;;;5056949;28;20384;-68
2021/04/01 05:14:01;;;;;;;79.97;33.58;;;18.20;40.30;;;;;;5051336;28;20053;-66
2021/04/01 05:16:28;;;;;;;73.00;29.85;;;18.20;40.50;;;;;;5054606;28;20084;-69
2021/04/01 05:18:58;;;;;;;;;;;18.20;40.90;;;;;;5072013;28;20045;-68
2021/04/01 05:21:41;;;;;;;77.20;30.95;;;18.20;40.80;;;;;;5073477;28;19920;-67
2021/04/01 05:24:09;;;;;;;67.13;30.15;;;18.20;40.70;;;;;;5071798;28;20032;-69
2021/04/01 05:29:05;;;;;;;70.22;30.00;;;18.10;40.90;;;;;;5072496;28;20044;-68
2021/04/01 05:31:36;;;;;;;69.30;29.83;;;18.00;40.60;;;;;;5072831;28;20056;-66
2021/04/01 05:34:03;;;;;;;67.03;31.02;;;18.00;40.50;;;;;;5071553;28;20465;-68
2021/04/01 05:36:33;;;;;;;68.22;30.25;;;18.10;40.60;;;;;;5072471;28;20114;-67
2021/04/01 05:39:00;;;;;;;76.13;32.55;;;18.10;40.50;;;;;;5072282;28;20040;-68
2021/04/01 05:41:29;;;;;;;78.10;31.98;;;18.20;40.70;;;;;;5073016;28;20048;-69
2021/04/01 05:44:14;;;;;;;78.57;31.48;;;18.10;41.10;;;;;;5071785;28;20436;-68
2021/04/01 05:49:23;;;;;;;74.00;33.42;;;18.30;41.70;;;;;;4364152;28;10000728;-69
2021/04/01 05:52:17;;;;;;;63.67;29.08;;;18.20;41.50;;;;;;5070428;28;20028;-69
2021/04/01 06:00:32;;;;;;;65.03;31.00;;;18.20;41.70;;;;;;5057670;28;20102;-68
2021/04/01 06:05:44;;;;;;;70.82;31.42;;;18.30;41.20;;;;;;5070365;28;20048;-68
2021/04/01 06:08:23;;;;;;;69.63;31.92;;;18.30;41.20;;;;;;5070284;28;20051;-67
2021/04/01 06:10:51;;;;;;;73.65;33.28;;;18.40;41.60;;;;;;5069751;28;20441;-69
2021/04/01 06:13:22;;;;;;;73.93;32.30;;;18.40;41.70;;;;;;5068692;28;20542;-68
2021/04/01 06:15:51;;;;;;;70.57;31.50;;;18.30;41.80;;;;;;5069509;28;20040;-67
2021/04/01 06:18:20;;;;;;;70.55;32.30;;;18.40;41.70;;;;;;5069026;28;20064;-69
2021/04/01 06:20:50;;;;;;;66.13;31.13;;;18.30;42.10;;;;;;5069877;28;20048;-68
2021/04/01 06:23:31;;;;;;;72.05;33.13;;;18.30;42.30;;;;;;5051554;28;20090;-70
2021/04/01 06:25:59;;;;;;;77.00;32.70;;;18.20;42.50;;;;;;5057260;28;20093;-69
2021/04/01 06:28:36;;;;;;;71.28;30.80;;;18.30;42.30;;;;;;5069176;28;20411;-70
2021/04/01 06:31:04;;;;;;;74.55;31.85;;;18.30;42.30;;;;;;5069298;28;20079;-69
2021/04/01 06:33:43;;;;;;;71.32;30.75;;;18.30;42.40;;;;;;5068854;28;20047;-69
2021/04/01 06:36:17;;;;;;;82.13;33.08;;;18.30;42.20;;;;;;5056660;28;20150;-67
2021/04/01 06:38:44;;;;;;;87.05;33.38;;;18.30;42.30;;;;;;5070633;28;20106;-67
2021/04/01 06:41:23;;;;;;;76.25;30.95;;;18.40;42.20;;;;;;5071072;28;20044;-67
2021/04/01 06:44:08;;;;;;;73.13;33.08;;;18.40;42.10;;;;;;5070739;28;20059;-68
2021/04/01 06:46:46;;;;;;;71.10;31.70;;;18.40;42.60;;;;;;5070854;28;20056;-71
2021/04/01 06:52:08;;;;;;;80.13;32.00;;;18.60;42.00;;;;;;5070710;28;20411;-70
2021/04/01 06:54:44;;;;;;;70.00;32.38;;;19.70;43.10;;;;;;5070797;28;20109;-70
2021/04/01 07:03:15;;;;;;;65.00;29.73;;;18.70;42.10;;;;;;5070856;28;20052;-67
2021/04/01 07:08:53;;;;;;;75.00;30.08;;;18.60;43.00;;;;;;5071232;28;20098;-68
2021/04/01 07:11:23;;;;;;;75.85;30.23;;;18.80;41.60;;;;;;5052828;28;20041;-68
2021/04/01 07:13:53;;;;;;;77.97;31.60;;;18.90;42.40;;;;;;5056660;28;20052;-67
2021/04/01 07:16:34;;;;;;;78.78;30.30;;;19.10;41.70;;;;;;5070898;28;20037;-68
2021/04/01 07:46:31;;;;;;;92.22;30.05;;;19.00;42.80;;;;;;5070911;28;20368;-69
2021/04/01 07:49:03;;;;;;;86.22;30.02;;;19.00;43.30;;;;;;5071042;28;20044;-69
2021/04/01 07:54:13;;;;;;;92.78;29.35;;;19.00;42.00;;;;;;5069887;28;20044;-67
2021/04/01 07:56:49;;;;;;;80.18;31.23;;;18.90;42.90;;;;;;5072058;28;20057;-72
2021/04/01 08:04:58;;;;;;;102.38;35.35;;;18.80;42.70;;;;;;5014220;28;20038;-70
2021/04/01 08:07:30;;;;;;;99.93;33.55;;;18.80;43.10;;;;;;5013548;28;20058;-69
2021/04/01 08:10:05;;;;;;;98.13;33.55;;;18.90;43.50;;;;;;5018782;28;20058;-69
2021/04/01 08:12:40;;;;;;;106.88;37.58;;;19.00;42.50;;;;;;5013936;28;20042;-70
2021/04/01 08:15:11;;;;;;;103.90;36.13;;;18.70;43.00;;;;;;5015005;28;20450;-69
2021/04/01 08:20:25;;;;;;;99.30;36.03;;;18.70;44.30;;;;;;5007751;28;20042;-71
2021/04/01 08:23:19;;;;;;;107.90;39.33;;;18.80;45.00;;;;;;5012223;28;20073;-70
2021/04/01 08:35:05;;;;;;;111.68;39.88;;;18.20;47.00;;;;;;5010353;28;20159;-69
2021/04/01 08:38:10;;;;;;;109.85;40.95;;;18.20;47.50;;;;;;4993475;28;20120;-69
2021/04/01 08:41:05;;;;;;;118.82;42.00;;;19.00;44.70;;;;;;5024919;28;20392;-67
2021/04/01 08:43:55;;;;;;;117.50;43.47;;;18.90;44.20;;;;;;5051281;28;20041;-69
2021/04/01 08:47:22;;;;;;;124.97;45.03;;;18.70;44.50;;;;;;5051917;28;20049;-67
2021/04/01 08:50:26;;;;;;;122.93;45.90;;;18.60;44.80;;;;;;4953401;28;20123;-70
2021/04/01 08:53:30;;;;;;;128.23;46.63;;;18.60;45.40;;;;;;4937614;28;20047;-67
2021/04/01 08:56:27;;;;;;;124.25;48.20;;;18.70;45.60;;;;;;4970309;28;20804;-67
2021/04/01 08:59:00;;;;;;;;;;;18.70;44.70;;;;;;4970795;28;20056;-68
2021/04/01 09:01:35;;;;;;;126.35;46.42;;;18.50;44.80;;;;;;4969776;28;19933;-67
2021/04/01 09:04:02;;;;;;;132.73;50.17;;;18.40;45.20;;;;;;4970467;28;20150;-67
2021/04/01 09:06:36;;;;;;;130.18;49.17;;;18.50;45.50;;;;;;4971858;28;20517;-70
2021/04/01 09:09:14;;;;;;;139.07;53.75;;;18.50;45.60;;;;;;4972389;28;20097;-74
2021/04/01 09:11:51;;;;;;;125.18;52.00;;;18.70;45.00;;;;;;4958086;28;20057;-66
2021/04/01 09:14:21;;;;;;;;;;;18.60;45.50;;;;;;4956501;28;20063;-68
2021/04/01 09:17:12;;;;;;;130.23;51.53;;;19.20;44.50;;;;;;4971867;28;19930;-70
2021/04/01 09:19:45;;;;;;;130.40;51.47;;;19.50;43.30;;;;;;4969193;28;20055;-70
2021/04/01 09:22:18;;;;;;;128.32;53.03;;;19.70;43.10;;;;;;4971382;28;20140;-69
2021/04/01 09:24:45;;;;;;;145.88;53.47;;;19.70;43.00;;;;;;4971580;28;20186;-70
2021/04/01 09:27:13;;;;;;;133.85;53.38;;;19.40;43.40;;;;;;5034776;28;20061;-70
2021/04/01 09:29:41;;;;;;;142.73;56.17;;;19.10;44.50;;;;;;5072881;28;20076;-68
2021/04/01 09:32:11;;;;;;;135.68;53.65;;;18.60;45.60;;;;;;5072333;28;20146;-69
2021/04/01 09:34:38;;;;;;;131.80;55.28;;;18.60;46.20;;;;;;5054024;28;20078;-69
2021/04/01 09:37:17;;;;;;;133.10;54.90;;;18.60;46.00;;;;;;5072395;28;20102;-68
2021/04/01 09:39:44;;;;;;;140.95;54.40;;;18.50;46.80;;;;;;5072951;28;20040;-68
2021/04/01 09:42:12;;;;;;;134.50;54.03;;;;;;;;;;5071999;28;20052;-68
2021/04/01 09:45:00;;;;;;;135.35;53.60;;;18.90;45.80;;;;;;5072454;28;20037;-69
2021/04/01 09:47:38;;;;;;;135.65;55.40;;;19.00;45.50;;;;;;5072328;28;20102;-66
2021/04/01 09:50:05;;;;;;;122.38;52.05;;;18.90;46.40;;;;;;5071942;28;20048;-69
2021/04/01 09:52:32;;;;;;;130.75;53.45;;;19.00;45.30;;;;;;5071830;28;20441;-70
2021/04/01 09:55:02;;;;;;;140.65;56.78;;;19.40;46.00;;;;;;5071855;28;20083;-67
2021/04/01 09:57:43;;;;;;;131.38;52.22;;;19.40;44.60;;;;;;5071861;28;20075;-70
2021/04/01 10:00:28;;;;;;;131.45;55.92;;;19.30;45.50;;;;;;5072045;28;20417;-71
2021/04/01 10:03:17;;;;;;;127.45;51.55;;;;;;;;;;5058884;28;20052;-68
2021/04/01 10:05:47;;;;;;;128.50;56.42;;;19.80;43.10;;;;;;5053506;28;20048;-68
2021/04/01 10:08:24;;;;;;;134.20;55.03;;;19.40;44.30;;;;;;5071807;28;20083;-70
2021/04/01 10:10:59;;;;;;;126.57;56.15;;;18.90;46.10;;;;;;5071512;28;20044;-71
2021/04/01 10:13:40;;;;;;;120.40;52.63;;;18.90;46.10;;;;;;5071249;28;20051;-67
2021/04/01 10:16:20;;;;;;;;;;;18.90;46.00;;;;;;5072402;28;20056;-70
2021/04/01 10:18:48;;;;;;;129.57;52.80;;;18.70;46.20;;;;;;5070797;28;19924;-69
2021/04/01 10:21:15;;;;;;;124.05;55.47;;;18.60;46.90;;;;;;5072090;28;20040;-68
2021/04/01 10:23:49;;;;;;;124.35;52.60;;;18.60;46.80;;;;;;5071525;28;20056;-68
2021/04/01 10:26:17;;;;;;;126.78;54.28;;;18.60;46.60;;;;;;5072065;28;20049;-68
2021/04/01 10:28:59;;;;;;;129.70;52.97;;;19.00;45.60;;;;;;5071776;28;20043;-69
2021/04/01 10:31:27;;;;;;;124.22;55.05;;;19.00;45.60;;;;;;5071718;28;20063;-68
2021/04/01 10:34:22;;;;;;;129.77;54.70;;;19.60;43.40;;;;;;5070649;28;20483;-69
2021/04/01 10:36:50;;;;;;;131.82;57.17;;;19.60;43.90;;;;;;5053646;28;20051;-69
2021/04/01 10:39:19;;;;;;;130.20;54.97;;;20.00;43.50;;;;;;5070284;28;20055;-69
2021/04/01 10:41:51;;;;;;;126.88;56.42;;;20.80;43.80;;;;;;5071381;28;20052;-66
2021/04/01 10:44:22;;;;;;;133.63;57.67;;;19.70;43.30;;;;;;5070047;28;20122;-68
2021/04/01 10:46:55;;;;;;;128.65;58.03;;;19.60;43.20;;;;;;5071079;28;20044;-71
2021/04/01 10:49:24;;;;;;;125.85;56.60;;;19.80;43.40;;;;;;5071082;28;20040;-68
2021/04/01 10:52:00;;;;;;;127.43;56.13;;;19.90;44.30;;;;;;5071181;28;20525;-67
2021/04/01 10:54:42;;;;;;;129.25;58.17;;;20.20;41.70;;;;;;5069723;28;20044;-70
2021/04/01 10:57:34;;;;;;;124.80;55.85;;;20.10;41.80;;;;;;5071066;28;20482;-69
2021/04/01 11:00:09;;;;;;;127.20;57.67;;;20.40;42.70;;;;;;5067824;28;20071;-70
2021/04/01 11:02:39;;;;;;;124.22;55.83;;;20.70;41.30;;;;;;4717867;28;10000330;-70
2021/04/01 11:05:15;;;;;;;115.55;53.83;;;20.80;41.60;;;;;;5068645;28;20071;-68
2021/04/01 11:07:47;;;;;;;117.55;54.45;;;21.10;40.10;;;;;;5068556;28;20819;-68
2021/04/01 11:10:26;;;;;;;116.13;55.25;;;21.00;39.80;;;;;;5069049;28;20044;-68
2021/04/01 11:12:58;;;;;;;113.90;52.53;;;20.90;39.00;;;;;;5068188;28;20052;-69
2021/04/01 11:15:37;;;;;;;116.07;54.53;;;20.10;41.60;;;;;;5068432;28;20048;-69
2021/04/01 11:18:13;;;;;;;116.38;52.80;;;20.00;42.20;;;;;;5067566;28;20479;-67
2021/04/01 11:20:42;;;;;;;102.63;49.92;;;20.60;42.30;;;;;;5047123;28;20037;-71
2021/04/01 11:23:21;;;;;;;99.75;47.88;;;20.60;41.40;;;;;;5062503;28;20052;-70
2021/04/01 11:25:58;;;;;;;97.10;45.63;;;21.10;41.30;;;;;;5051994;28;20040;-69
2021/04/01 11:28:36;;;;;;;89.38;40.33;;;21.50;40.60;;;;;;5069891;28;20479;-71
2021/04/01 11:31:04;;;;;;;88.93;40.83;;;21.70;39.50;;;;;;5070432;28;20090;-71
2021/04/01 11:33:31;;;;;;;74.00;34.90;;;22.10;38.80;;;;;;5070571;28;20040;-73
2021/04/01 11:36:08;;;;;;;73.45;33.28;;;22.00;38.70;;;;;;5052357;28;20037;-72
2021/04/01 11:38:43;;;;;;;69.43;32.53;;;22.00;37.80;;;;;;5070358;28;20044;-72
2021/04/01 11:41:15;;;;;;;70.32;32.17;;;21.80;38.10;;;;;;5039395;28;20089;-74
2021/04/01 11:43:43;;;;;;;61.40;27.65;;;21.50;38.50;;;;;;5070139;28;20101;-71
2021/04/01 11:46:18;;;;;;;66.13;27.33;;;21.40;39.40;;;;;;5036545;28;20052;-72
2021/04/01 11:48:46;;;;;;;58.87;25.07;;;21.40;38.50;;;;;;5070604;28;20044;-72
2021/04/01 11:51:34;;;;;;;54.72;25.05;;;21.40;38.90;;;;;;5053122;28;20048;-73
2021/04/01 11:54:03;;;;;;;57.45;24.60;;;20.80;39.30;;;;;;5070450;28;20071;-73
2021/04/01 11:56:39;;;;;;;51.17;24.42;;;20.20;41.00;;;;;;5070935;28;20556;-71
2021/04/01 11:59:10;;;;;;;52.72;21.42;;;20.20;41.80;;;;;;5052377;28;20045;-71
2021/04/01 12:01:58;;;;;;;49.30;22.15;;;20.60;40.50;;;;;;5069655;28;20061;-73
2021/04/01 12:04:29;;;;;;;44.15;17.25;;;20.70;40.00;;;;;;5070813;28;20043;-74
2021/04/01 12:06:56;;;;;;;39.90;16.25;;;20.40;40.10;;;;;;5070241;28;20522;-72
2021/04/01 12:09:24;;;;;;;39.63;16.90;;;20.20;40.40;;;;;;5070264;28;20441;-71
2021/04/01 12:11:50;;;;;;;33.00;14.02;;;20.30;41.00;;;;;;5069856;28;20498;-71
2021/04/01 12:14:18;;;;;;;30.95;13.35;;;20.50;39.30;;;;;;5069785;28;20044;-71
2021/04/01 12:16:46;;;;;;;37.30;13.20;;;21.20;39.30;;;;;;5068763;28;20392;-70
2021/04/01 12:19:13;;;;;;;34.00;12.48;;;21.50;36.60;;;;;;5070316;28;20052;-67
2021/04/01 12:21:41;;;;;;;26.83;12.27;;;21.40;37.20;;;;;;5070112;28;20076;-67
2021/04/01 12:24:09;;;;;;;30.25;11.57;;;21.40;37.00;;;;;;5069723;28;20052;-68
2021/04/01 12:26:50;;;;;;;22.92;8.82;;;21.50;36.70;;;;;;5070194;28;20124;-70
2021/04/01 12:29:17;;;;;;;21.50;9.07;;;21.60;37.60;;;;;;5069567;28;20392;-72
2021/04/01 12:31:55;;;;;;;26.40;9.60;;;21.70;36.20;;;;;;5069526;28;20053;-71
2021/04/01 12:34:24;;;;;;;18.15;7.18;;;21.50;36.20;;;;;;5056418;28;20091;-70
2021/04/01 12:36:51;;;;;;;19.30;6.80;;;21.20;37.20;;;;;;5069373;28;20475;-71
2021/04/01 12:39:28;;;;;;;18.52;6.75;;;21.20;37.90;;;;;;5072736;28;20048;-71
2021/04/01 12:41:55;;;;;;;21.98;6.72;;;21.30;38.00;;;;;;5061214;28;20463;-69
2021/04/01 12:44:39;;;;;;;18.77;6.05;;;21.00;37.90;;;;;;5084401;28;20118;-69
2021/04/01 12:47:07;;;;;;;19.80;6.25;;;20.90;38.10;;;;;;5082991;28;20041;-69
2021/04/01 12:49:37;;;;;;;18.67;6.05;;;20.60;39.00;;;;;;5078597;28;20040;-67
2021/04/01 12:52:06;;;;;;;18.15;5.60;;;19.90;40.60;;;;;;5092119;28;20040;-68
2021/04/01 12:54:41;;;;;;;18.88;6.00;;;20.10;40.60;;;;;;5089285;28;20044;-70
2021/04/01 12:57:16;;;;;;;14.15;5.45;;;20.20;40.70;;;;;;5039967;28;20060;-71
2021/04/01 13:00:14;;;;;;;17.52;5.40;;;20.30;40.40;;;;;;5063320;28;20047;-70
2021/04/01 13:02:40;;;;;;;13.70;5.25;;;20.00;40.40;;;;;;5074453;28;20052;-71
2021/04/01 13:05:10;;;;;;;17.90;5.80;;;20.40;40.50;;;;;;5073600;28;20040;-74
2021/04/01 13:10:41;;;;;;;18.38;5.25;;;20.10;40.70;;;;;;4993599;28;20516;-70
2021/04/01 13:13:09;;;;;;;16.20;5.45;;;20.00;40.70;;;;;;4994720;28;20100;-72
2021/04/01 13:15:38;;;;;;;19.30;5.13;;;19.80;42.00;;;;;;4987872;28;20613;-69
2021/04/01 13:18:10;;;;;;;13.82;4.75;;;20.00;41.60;;;;;;4993163;28;20062;-69
2021/04/01 13:20:37;;;;;;;18.48;4.97;;;20.10;41.10;;;;;;5007929;28;20479;-68
2021/04/01 13:23:23;;;;;;;19.85;5.50;;;19.90;41.60;;;;;;5007719;28;20050;-70
2021/04/01 13:25:53;;;;;;;22.80;4.97;;;19.90;42.30;;;;;;5003974;28;20116;-69
2021/04/01 13:28:20;;;;;;;20.02;5.07;;;19.50;42.30;;;;;;5007116;28;20405;-68
2021/04/01 13:30:59;;;;;;;21.52;5.18;;;19.90;42.50;;;;;;5003733;28;20133;-68
2021/04/01 13:33:40;;;;;;;16.00;4.93;;;20.20;41.00;;;;;;5010298;28;20067;-70
2021/04/01 13:36:17;;;;;;;27.33;5.15;;;20.40;41.40;;;;;;4996640;28;20072;-64
2021/04/01 13:38:44;;;;;;;21.67;5.47;;;21.00;40.70;;;;;;5006798;28;20516;-65
2021/04/01 13:41:15;;;;;;;16.55;4.15;;;21.40;38.50;;;;;;5005449;28;20412;-71
2021/04/01 13:43:43;;;;;;;17.38;4.40;;;21.40;39.50;;;;;;5006006;28;20460;-71
2021/04/01 13:46:10;;;;;;;21.10;4.97;;;21.90;38.30;;;;;;5013546;28;20064;-68
2021/04/01 13:48:38;;;;;;;;;;;22.10;38.20;;;;;;5065486;28;20112;-69
2021/04/01 13:51:11;;;;;;;19.17;4.80;;;21.50;38.10;;;;;;5035781;28;20337;-69
2021/04/01 13:54:13;;;;;;;18.75;4.43;;;20.90;38.60;;;;;;5073919;28;20044;-68
2021/04/01 13:56:53;;;;;;;18.10;4.00;;;20.20;40.20;;;;;;5070342;28;20052;-69
2021/04/01 13:59:38;;;;;;;22.20;4.47;;;20.10;41.00;;;;;;5073876;28;20445;-69
2021/04/01 14:10:31;;;;;;;13.00;4.25;;;20.00;40.50;;;;;;5073687;28;20398;-65
2021/04/01 14:13:01;;;;;;;16.20;4.30;;;20.00;41.20;;;;;;5073824;28;20048;-65
2021/04/01 14:15:31;;;;;;;15.63;4.07;;;19.60;41.50;;;;;;5071333;28;20079;-65
2021/04/01 14:17:59;;;;;;;11.73;3.60;;;19.50;42.20;;;;;;4353309;28;10000682;-65
2021/04/01 14:20:26;;;;;;;12.43;3.65;;;19.60;43.30;;;;;;5047888;28;20498;-64
2021/04/01 14:22:56;;;;;;;16.40;3.67;;;19.80;41.50;;;;;;5059218;28;20032;-63
2021/04/01 14:25:33;;;;;;;10.95;3.58;;;20.10;40.20;;;;;;5068843;28;20098;-64
2021/04/01 14:28:03;;;;;;;26.13;3.90;;;20.10;40.80;;;;;;5068745;28;20072;-65
2021/04/01 14:30:33;;;;;;;15.65;5.00;;;20.20;39.90;;;;;;5051065;28;20274;-65
2021/04/01 14:33:02;;;;;;;13.68;3.60;;;19.90;41.60;;;;;;5051135;28;20049;-66
2021/04/01 14:35:34;;;;;;;8.48;3.08;;;19.30;41.80;;;;;;5069242;28;20047;-67
2021/04/01 14:38:04;;;;;;;12.23;3.40;;;19.10;42.50;;;;;;5071104;28;20437;-67
2021/04/01 14:40:48;;;;;;;13.23;3.45;;;19.20;43.10;;;;;;5073822;28;20048;-62